createdAt,value
2023-05-19T00:00:04.781Z,11.83
2023-05-19T00:02:34.198Z,11.71
2023-05-19T00:05:02.649Z,11.71
2023-05-19T00:07:32.681Z,11.73
2023-05-19T00:10:00.903Z,11.91
2023-05-19T00:12:28.898Z,12.06
2023-05-19T00:14:58.114Z,12.08
2023-05-19T00:17:26.259Z,12.19
2023-05-19T00:19:54.765Z,12.27
2023-05-19T00:22:22.841Z,12.08
2023-05-19T00:24:50.387Z,12.18
2023-05-19T00:27:17.878Z,11.96
2023-05-19T00:29:45.390Z,11.86
2023-05-19T00:32:14.326Z,11.74
2023-05-19T00:34:42.394Z,11.75
2023-05-19T00:37:09.903Z,11.87
2023-05-19T00:39:37.440Z,11.93
2023-05-19T00:42:05.817Z,11.76
2023-05-19T00:44:33.370Z,11.68
2023-05-19T00:47:01.028Z,11.65
2023-05-19T00:49:30.017Z,11.61
2023-05-19T00:51:58.114Z,11.53
2023-05-19T00:54:25.956Z,11.25
2023-05-19T00:56:54.440Z,11.04
2023-05-19T00:59:22.295Z,11.12
2023-05-19T01:01:50.655Z,10.92
2023-05-19T01:04:21.688Z,10.81
2023-05-19T01:06:54.781Z,10.86
2023-05-19T01:09:22.616Z,10.87
2023-05-19T01:11:50.177Z,10.90
2023-05-19T01:14:18.696Z,10.82
2023-05-19T01:16:50.466Z,10.63
2023-05-19T01:19:38.637Z,10.74
2023-05-19T01:22:23.893Z,10.64
2023-05-19T01:25:13.017Z,10.55
2023-05-19T01:27:51.390Z,10.45
2023-05-19T01:30:38.854Z,10.56
2023-05-19T01:33:09.112Z,10.60
2023-05-19T01:35:39.823Z,10.47
2023-05-19T01:38:09.792Z,10.26
2023-05-19T01:40:39.653Z,10.30
2023-05-19T01:43:10.370Z,10.20
2023-05-19T01:45:39.540Z,10.07
2023-05-19T01:48:10.617Z,10.35
2023-05-19T01:50:38.796Z,10.36
2023-05-19T01:53:06.393Z,10.38
2023-05-19T01:55:35.259Z,10.35
2023-05-19T01:58:10.329Z,10.37
2023-05-19T02:00:50.289Z,10.52
2023-05-19T02:03:30.395Z,10.54
2023-05-19T02:06:08.152Z,10.53
2023-05-19T02:08:43.788Z,10.77
2023-05-19T02:11:16.069Z,10.59
2023-05-19T02:13:45.492Z,10.52
2023-05-19T02:16:15.385Z,10.48
2023-05-19T02:18:45.375Z,10.63
2023-05-19T02:21:13.515Z,10.48
2023-05-19T02:23:41.832Z,10.64
2023-05-19T02:26:09.554Z,10.47
2023-05-19T02:28:37.443Z,10.01
2023-05-19T02:31:08.730Z,10.03
2023-05-19T02:33:37.619Z,10.33
2023-05-19T02:36:05.780Z,10.27
2023-05-19T02:38:33.301Z,10.45
2023-05-19T02:41:00.803Z,10.32
2023-05-19T02:43:30.600Z,10.48
2023-05-19T02:45:58.217Z,10.59
2023-05-19T02:48:25.796Z,10.37
2023-05-19T02:50:54.698Z,9.94
2023-05-19T02:53:22.209Z,10.04
2023-05-19T02:55:49.718Z,10.28
2023-05-19T02:58:17.231Z,10.55
2023-05-19T03:00:45.430Z,10.56
2023-05-19T03:03:13.852Z,10.59
2023-05-19T03:05:42.112Z,10.43
2023-05-19T03:08:11.007Z,10.49
2023-05-19T03:10:38.547Z,10.37
2023-05-19T03:13:06.351Z,10.31
2023-05-19T03:15:34.288Z,10.55
2023-05-19T03:18:01.864Z,10.57
2023-05-19T03:20:30.573Z,10.87
2023-05-19T03:22:59.060Z,11.11
2023-05-19T03:25:28.136Z,11.24
2023-05-19T03:27:55.641Z,11.12
2023-05-19T03:30:23.161Z,10.87
2023-05-19T03:32:51.998Z,11.06
2023-05-19T03:35:19.940Z,10.71
2023-05-19T03:37:47.446Z,10.28
2023-05-19T03:40:15.485Z,10.70
2023-05-19T03:42:44.325Z,11.45
2023-05-19T03:45:12.278Z,11.30
2023-05-19T03:47:39.878Z,11.64
2023-05-19T03:50:09.766Z,11.21
2023-05-19T03:52:38.543Z,11.50
2023-05-19T03:55:07.035Z,11.92
2023-05-19T03:57:34.570Z,12.04
2023-05-19T04:00:05.525Z,12.02
2023-05-19T04:02:33.066Z,11.36
2023-05-19T04:05:00.731Z,11.04
2023-05-19T04:07:28.217Z,10.82
2023-05-19T04:09:55.883Z,10.78
2023-05-19T04:12:23.393Z,10.74
2023-05-19T04:14:50.898Z,10.87
2023-05-19T04:17:19.756Z,10.97
2023-05-19T04:19:47.271Z,10.88
2023-05-19T04:22:14.851Z,10.90
2023-05-19T04:24:42.370Z,10.91
2023-05-19T04:27:11.895Z,10.88
2023-05-19T04:29:40.654Z,11.27
2023-05-19T04:32:09.081Z,11.40
2023-05-19T04:34:40.120Z,11.60
2023-05-19T04:37:10.077Z,11.60
2023-05-19T04:39:38.831Z,11.31
2023-05-19T04:42:06.873Z,11.40
2023-05-19T04:44:34.383Z,11.11
2023-05-19T04:47:02.027Z,10.91
2023-05-19T04:49:29.528Z,10.81
2023-05-19T04:51:58.364Z,10.93
2023-05-19T04:54:26.378Z,10.93
2023-05-19T04:56:53.876Z,10.99
2023-05-19T04:59:23.195Z,11.07
2023-05-19T05:01:50.885Z,11.17
2023-05-19T05:04:18.482Z,11.15
2023-05-19T05:06:47.906Z,11.26
2023-05-19T05:09:17.393Z,11.43
2023-05-19T05:11:45.555Z,11.41
2023-05-19T05:14:13.590Z,11.79
2023-05-19T05:16:42.118Z,11.99
2023-05-19T05:19:10.238Z,11.82
2023-05-19T05:21:38.340Z,11.62
2023-05-19T05:24:06.625Z,11.92
2023-05-19T05:26:36.465Z,12.04
2023-05-19T05:29:04.543Z,12.19
2023-05-19T05:31:32.404Z,12.39
2023-05-19T05:34:00.492Z,12.44
2023-05-19T05:36:28.037Z,12.55
2023-05-19T05:38:55.586Z,12.84
2023-05-19T05:41:23.206Z,12.98
2023-05-19T05:43:52.067Z,13.31
2023-05-19T05:46:19.640Z,12.85
2023-05-19T05:48:48.060Z,12.89
2023-05-19T05:51:16.114Z,13.05
2023-05-19T05:53:47.475Z,12.73
2023-05-19T05:56:15.844Z,12.92
2023-05-19T05:58:43.932Z,12.49
2023-05-19T06:01:13.067Z,13.18
2023-05-19T06:03:42.735Z,13.51
2023-05-19T06:06:10.436Z,13.83
2023-05-19T06:08:38.001Z,13.90
2023-05-19T06:11:08.350Z,13.80
2023-05-19T06:13:36.599Z,13.79
2023-05-19T06:16:04.637Z,13.76
2023-05-19T06:18:33.587Z,14.05
2023-05-19T06:21:01.607Z,13.87
2023-05-19T06:23:29.219Z,14.13
2023-05-19T06:25:57.704Z,14.08
2023-05-19T06:28:25.221Z,13.86
2023-05-19T06:30:52.714Z,14.29
2023-05-19T06:33:20.218Z,14.51
2023-05-19T06:35:49.100Z,14.87
2023-05-19T06:38:16.610Z,15.77
2023-05-19T06:40:44.170Z,15.99
2023-05-19T06:43:11.726Z,16.07
2023-05-19T06:45:39.346Z,16.45
2023-05-19T06:48:06.937Z,16.39
2023-05-19T06:50:34.655Z,16.41
2023-05-19T06:53:03.724Z,16.89
2023-05-19T06:55:32.145Z,17.27
2023-05-19T06:57:59.705Z,17.45
2023-05-19T07:00:27.212Z,17.37
2023-05-19T07:02:54.759Z,17.51
2023-05-19T07:05:22.431Z,16.91
2023-05-19T07:07:49.934Z,15.50
2023-05-19T07:10:18.860Z,15.97
2023-05-19T07:12:46.379Z,16.28
2023-05-19T07:15:13.877Z,15.66
2023-05-19T07:17:41.433Z,15.00
2023-05-19T07:20:10.798Z,15.26
2023-05-19T07:22:39.649Z,15.58
2023-05-19T07:25:08.238Z,16.05
2023-05-19T07:27:37.446Z,16.85
2023-05-19T07:30:05.395Z,17.41
2023-05-19T07:32:32.939Z,17.43
2023-05-19T07:35:00.434Z,17.07
2023-05-19T07:37:27.990Z,18.18
2023-05-19T07:39:55.529Z,18.03
2023-05-19T07:42:23.016Z,18.74
2023-05-19T07:44:51.910Z,18.45
2023-05-19T07:47:19.411Z,17.62
2023-05-19T07:49:48.593Z,19.11
2023-05-19T07:52:18.247Z,21.12
2023-05-19T07:54:46.847Z,22.47
2023-05-19T07:57:15.128Z,22.19
2023-05-19T07:59:42.605Z,21.92
2023-05-19T08:02:11.441Z,20.17
2023-05-19T08:04:39.094Z,18.56
2023-05-19T08:07:06.689Z,17.97
2023-05-19T08:09:34.185Z,17.85
2023-05-19T08:12:02.127Z,17.71
2023-05-19T08:14:29.675Z,16.24
2023-05-19T08:16:57.162Z,17.14
2023-05-19T08:19:26.926Z,18.76
2023-05-19T08:21:54.551Z,20.22
2023-05-19T08:24:22.044Z,19.93
2023-05-19T08:26:49.523Z,20.46
2023-05-19T08:29:17.014Z,19.34
2023-05-19T08:31:44.578Z,18.44
2023-05-19T08:34:12.206Z,18.29
2023-05-19T08:36:41.849Z,18.37
2023-05-19T08:39:09.389Z,16.89
2023-05-19T08:41:37.036Z,16.73
2023-05-19T08:44:04.896Z,16.97
2023-05-19T08:46:33.061Z,16.97
2023-05-19T08:49:08.901Z,15.94
2023-05-19T08:51:48.343Z,16.18
2023-05-19T08:54:18.002Z,17.21
2023-05-19T08:56:46.505Z,17.77
2023-05-19T08:59:15.015Z,17.35
2023-05-19T09:01:43.926Z,17.32
2023-05-19T09:04:11.744Z,17.59
2023-05-19T09:06:42.308Z,18.20
2023-05-19T09:09:10.226Z,18.26
2023-05-19T09:11:38.035Z,18.12
2023-05-19T09:14:05.828Z,17.84
2023-05-19T09:16:33.925Z,17.57
2023-05-19T09:19:01.925Z,17.95
2023-05-19T09:21:31.373Z,17.62
2023-05-19T09:24:05.381Z,17.56
2023-05-19T09:26:38.396Z,17.71
2023-05-19T09:29:12.401Z,16.44
2023-05-19T09:31:39.995Z,16.73
2023-05-19T09:34:13.832Z,17.54
2023-05-19T09:36:42.250Z,18.13
2023-05-19T09:39:18.206Z,18.22
2023-05-19T09:41:46.752Z,18.10
2023-05-19T09:44:15.342Z,17.57
2023-05-19T09:46:49.440Z,17.07
2023-05-19T09:49:21.490Z,17.45
2023-05-19T09:51:51.131Z,17.99
2023-05-19T09:54:21.419Z,18.66
2023-05-19T09:56:53.012Z,20.22
2023-05-19T09:59:21.272Z,21.16
2023-05-19T10:01:49.635Z,21.62
2023-05-19T10:04:18.086Z,20.94
2023-05-19T10:06:46.207Z,19.93
2023-05-19T10:09:14.318Z,19.70
2023-05-19T10:11:44.368Z,20.85
2023-05-19T10:14:11.980Z,21.30
2023-05-19T10:16:40.067Z,20.89
2023-05-19T10:19:08.805Z,21.82
2023-05-19T10:21:36.486Z,20.24
2023-05-19T10:24:04.189Z,19.23
2023-05-19T10:26:32.590Z,18.41
2023-05-19T10:29:03.312Z,17.93
2023-05-19T10:31:33.757Z,17.50
2023-05-19T10:34:15.157Z,17.53
2023-05-19T10:36:46.856Z,17.33
2023-05-19T10:39:19.876Z,17.38
2023-05-19T10:41:54.722Z,17.39
2023-05-19T10:44:35.355Z,17.73
2023-05-19T10:47:03.044Z,17.80
2023-05-19T10:49:35.961Z,18.49
2023-05-19T10:52:03.794Z,18.76
2023-05-19T10:54:43.132Z,19.48
2023-05-19T10:57:15.519Z,19.45
2023-05-19T10:59:45.607Z,18.75
2023-05-19T11:02:41.154Z,19.44
2023-05-19T11:05:10.481Z,18.22
2023-05-19T11:07:38.057Z,19.34
2023-05-19T11:10:09.095Z,20.19
2023-05-19T11:12:44.144Z,19.23
2023-05-19T11:15:16.312Z,18.69
2023-05-19T11:17:48.301Z,18.81
2023-05-19T11:20:23.354Z,18.48
2023-05-19T11:23:07.195Z,19.32
2023-05-19T11:25:46.816Z,19.91
2023-05-19T11:28:16.985Z,20.75
2023-05-19T11:30:49.302Z,21.84
2023-05-19T11:33:19.274Z,23.01
2023-05-19T11:35:47.644Z,21.33
2023-05-19T11:38:15.365Z,21.18
2023-05-19T11:40:44.042Z,20.36
2023-05-19T11:43:11.686Z,20.31
2023-05-19T11:45:39.241Z,20.83
2023-05-19T11:48:12.372Z,22.36
2023-05-19T11:50:42.151Z,24.21
2023-05-19T11:53:13.047Z,26.21
2023-05-19T11:55:44.405Z,27.74
2023-05-19T11:58:12.010Z,25.03
2023-05-19T12:00:40.928Z,23.47
2023-05-19T12:03:10.445Z,22.82
2023-05-19T12:05:42.864Z,22.13
2023-05-19T12:08:11.155Z,21.92
2023-05-19T12:10:39.681Z,21.69
2023-05-19T12:13:09.416Z,21.29
2023-05-19T12:15:37.486Z,20.07
2023-05-19T12:18:05.606Z,20.07
2023-05-19T12:20:35.783Z,20.59
2023-05-19T12:23:04.480Z,20.81
2023-05-19T12:25:32.972Z,20.97
2023-05-19T12:28:02.804Z,21.40
2023-05-19T12:30:31.790Z,22.48
2023-05-19T12:32:59.933Z,23.37
2023-05-19T12:35:28.807Z,22.26
2023-05-19T12:37:57.848Z,21.67
2023-05-19T12:40:26.128Z,21.55
2023-05-19T12:42:58.989Z,21.49
2023-05-19T12:45:28.108Z,21.72
2023-05-19T12:47:56.005Z,21.67
2023-05-19T12:50:31.237Z,21.09
2023-05-19T12:53:00.458Z,21.36
2023-05-19T12:55:27.984Z,20.73
2023-05-19T12:57:57.841Z,21.65
2023-05-19T13:00:28.956Z,22.26
2023-05-19T13:03:01.410Z,22.66
2023-05-19T13:05:31.176Z,21.49
2023-05-19T13:08:01.921Z,21.92
2023-05-19T13:10:31.313Z,21.95
2023-05-19T13:13:00.368Z,21.96
2023-05-19T13:15:29.436Z,20.87
2023-05-19T13:17:57.016Z,21.77
2023-05-19T13:20:29.640Z,22.77
2023-05-19T13:22:57.382Z,23.27
2023-05-19T13:25:26.687Z,21.64
2023-05-19T13:27:55.208Z,20.69
2023-05-19T13:30:23.696Z,20.61
2023-05-19T13:32:52.414Z,21.28
2023-05-19T13:35:20.442Z,21.97
2023-05-19T13:37:48.863Z,23.68
2023-05-19T13:40:17.516Z,25.17
2023-05-19T13:42:46.747Z,24.70
2023-05-19T13:45:14.744Z,24.39
2023-05-19T13:47:42.268Z,23.62
2023-05-19T13:50:10.527Z,23.97
2023-05-19T13:52:38.023Z,23.81
2023-05-19T13:55:07.016Z,22.36
2023-05-19T13:57:35.267Z,21.67
2023-05-19T14:00:05.916Z,22.33
2023-05-19T14:02:34.311Z,23.77
2023-05-19T14:05:01.845Z,23.09
2023-05-19T14:07:30.107Z,22.89
2023-05-19T14:09:57.611Z,22.34
2023-05-19T14:12:36.386Z,22.10
2023-05-19T14:15:12.932Z,21.84
2023-05-19T14:17:40.427Z,21.02
2023-05-19T14:20:09.470Z,20.84
2023-05-19T14:22:36.950Z,21.29
2023-05-19T14:25:04.604Z,21.18
2023-05-19T14:27:32.119Z,20.79
2023-05-19T14:29:59.683Z,20.67
2023-05-19T14:32:30.474Z,20.86
2023-05-19T14:34:58.256Z,20.57
2023-05-19T14:37:27.489Z,19.81
2023-05-19T14:39:55.164Z,20.15
2023-05-19T14:42:22.737Z,19.24
2023-05-19T14:44:50.250Z,18.77
2023-05-19T14:47:17.741Z,20.08
2023-05-19T14:49:46.587Z,20.68
2023-05-19T14:52:14.074Z,20.35
2023-05-19T14:54:41.555Z,20.03
2023-05-19T14:57:09.032Z,19.70
2023-05-19T14:59:37.961Z,19.26
2023-05-19T15:02:05.934Z,19.33
2023-05-19T15:04:33.487Z,19.19
2023-05-19T15:09:32.774Z,19.13
2023-05-19T15:12:01.034Z,19.00
2023-05-19T15:14:30.446Z,18.99
2023-05-19T15:16:59.123Z,19.03
2023-05-19T15:19:27.119Z,19.34
2023-05-19T15:21:55.052Z,19.56
2023-05-19T15:24:24.225Z,19.20
2023-05-19T15:26:51.970Z,19.09
2023-05-19T15:29:19.510Z,19.16
2023-05-19T15:31:47.267Z,19.17
2023-05-19T15:34:14.973Z,18.97
2023-05-19T15:36:42.524Z,19.52
2023-05-19T15:39:10.102Z,19.33
2023-05-19T15:41:38.965Z,19.33
2023-05-19T15:44:06.748Z,19.64
2023-05-19T15:46:34.492Z,19.50
2023-05-19T15:49:02.048Z,19.74
2023-05-19T15:51:29.661Z,19.45
2023-05-19T15:53:57.174Z,19.36
2023-05-19T15:56:24.730Z,19.37
2023-05-19T15:58:53.542Z,18.98
2023-05-19T16:01:21.599Z,19.61
2023-05-19T16:03:49.219Z,18.89
2023-05-19T16:06:17.687Z,18.80
2023-05-19T16:08:45.194Z,18.58
2023-05-19T16:11:12.853Z,18.68
2023-05-19T16:13:40.366Z,18.49
2023-05-19T16:16:09.383Z,18.50
2023-05-19T16:18:36.867Z,18.34
2023-05-19T16:21:04.627Z,18.67
2023-05-19T16:23:32.144Z,18.74
2023-05-19T16:25:59.632Z,18.94
2023-05-19T16:28:27.875Z,18.72
2023-05-19T16:30:58.309Z,18.59
2023-05-19T16:33:27.234Z,18.62
2023-05-19T16:35:54.905Z,18.78
2023-05-19T16:38:22.550Z,19.24
2023-05-19T16:40:50.061Z,19.19
2023-05-19T16:43:17.630Z,18.91
2023-05-19T16:45:45.175Z,19.14
2023-05-19T16:48:12.761Z,19.57
2023-05-19T16:50:41.624Z,19.99
2023-05-19T16:53:09.098Z,19.76
2023-05-19T16:55:36.562Z,19.39
2023-05-19T16:58:04.091Z,18.73
2023-05-19T17:00:31.858Z,18.39
2023-05-19T17:03:00.669Z,18.05
2023-05-19T17:05:28.968Z,18.43
2023-05-19T17:07:57.834Z,18.51
2023-05-19T17:10:25.404Z,18.58
2023-05-19T17:12:52.873Z,18.67
2023-05-19T17:15:20.366Z,18.57
2023-05-19T17:17:47.903Z,18.65
2023-05-19T17:20:15.503Z,18.64
2023-05-19T17:22:42.976Z,18.38
2023-05-19T17:25:12.143Z,18.39
2023-05-19T17:27:39.646Z,18.15
2023-05-19T17:30:08.728Z,17.95
2023-05-19T17:32:39.275Z,17.91
2023-05-19T17:35:08.295Z,17.97
2023-05-19T17:37:36.317Z,17.76
2023-05-19T17:40:04.279Z,17.98
2023-05-19T17:42:34.078Z,17.99
2023-05-19T17:45:01.582Z,17.92
2023-05-19T17:47:29.108Z,17.98
2023-05-19T17:49:56.670Z,17.75
2023-05-19T17:52:25.704Z,17.47
2023-05-19T17:54:53.855Z,17.17
2023-05-19T17:57:25.753Z,17.09
2023-05-19T17:59:55.374Z,16.94
2023-05-19T18:02:23.247Z,16.63
2023-05-19T18:04:51.250Z,16.74
2023-05-19T18:07:19.333Z,16.72
2023-05-19T18:09:47.380Z,16.40
2023-05-19T18:12:15.339Z,16.20
2023-05-19T18:14:42.837Z,16.27
2023-05-19T18:17:11.686Z,16.10
2023-05-19T18:19:39.196Z,16.21
2023-05-19T18:22:06.729Z,16.08
2023-05-19T18:24:34.223Z,16.11
2023-05-19T18:27:01.729Z,15.87
2023-05-19T18:29:29.226Z,15.93
2023-05-19T18:31:56.817Z,15.77
2023-05-19T18:34:27.583Z,15.85
2023-05-19T18:36:55.122Z,15.77
2023-05-19T18:39:22.676Z,15.61
2023-05-19T18:41:50.764Z,15.48
2023-05-19T18:44:18.317Z,15.38
2023-05-19T18:46:45.998Z,15.44
2023-05-19T18:49:13.577Z,15.24
2023-05-19T18:51:42.525Z,15.15
2023-05-19T18:54:10.086Z,15.14
2023-05-19T18:56:37.570Z,15.08
2023-05-19T18:59:05.190Z,15.19
2023-05-19T19:01:32.698Z,15.08
2023-05-19T19:04:00.925Z,15.18
2023-05-19T19:06:28.539Z,15.12
2023-05-19T19:08:57.520Z,15.04
2023-05-19T19:11:25.011Z,15.13
2023-05-19T19:13:55.372Z,14.97
2023-05-19T19:16:23.241Z,14.81
2023-05-19T19:18:50.843Z,14.77
2023-05-19T19:21:19.793Z,14.81
2023-05-19T19:23:47.358Z,14.76
2023-05-19T19:26:16.228Z,14.76
2023-05-19T19:28:44.486Z,14.79
2023-05-19T19:31:12.013Z,14.77
2023-05-19T19:33:39.822Z,14.65
2023-05-19T19:36:07.482Z,14.57
2023-05-19T19:38:34.989Z,14.57
2023-05-19T19:41:02.634Z,14.57
2023-05-19T19:43:31.459Z,14.45
2023-05-19T19:46:00.702Z,14.57
2023-05-19T19:48:28.862Z,14.65
2023-05-19T19:50:57.024Z,14.51
2023-05-19T19:53:24.956Z,14.43
2023-05-19T19:55:59.503Z,14.42
2023-05-19T19:58:27.727Z,14.37
2023-05-19T20:01:00.564Z,14.32
2023-05-19T20:03:28.508Z,14.30
2023-05-19T20:05:57.548Z,14.25
2023-05-19T20:08:25.702Z,14.42
2023-05-19T20:10:53.394Z,14.12
2023-05-19T20:13:21.181Z,14.17
2023-05-19T20:15:48.738Z,14.17
2023-05-19T20:18:17.686Z,14.32
2023-05-19T20:20:45.233Z,14.42
2023-05-19T20:23:13.332Z,14.53
2023-05-19T20:25:57.878Z,14.36
2023-05-19T20:28:30.153Z,14.37
2023-05-19T20:30:57.665Z,14.50
2023-05-19T20:33:26.507Z,14.57
2023-05-19T20:35:54.017Z,14.53
2023-05-19T20:38:21.574Z,14.65
2023-05-19T20:40:49.154Z,14.54
2023-05-19T20:43:16.676Z,14.63
2023-05-19T20:45:44.599Z,14.71
2023-05-19T20:48:12.405Z,14.60
2023-05-19T20:50:41.496Z,14.62
2023-05-19T20:53:09.044Z,14.73
2023-05-19T20:55:37.822Z,14.65
2023-05-19T20:58:05.370Z,14.70
2023-05-19T21:00:33.357Z,14.72
2023-05-19T21:03:01.672Z,14.66
2023-05-19T21:05:29.318Z,14.61
2023-05-19T21:07:58.368Z,14.58
2023-05-19T21:10:25.896Z,14.68
2023-05-19T21:12:53.396Z,14.57
2023-05-19T21:15:21.146Z,14.63
2023-05-19T21:17:48.682Z,14.74
2023-05-19T21:20:16.217Z,14.83
2023-05-19T21:22:43.715Z,14.55
2023-05-19T21:25:12.725Z,14.61
2023-05-19T21:27:40.484Z,14.73
2023-05-19T21:30:09.647Z,14.75
2023-05-19T21:32:37.202Z,14.86
2023-05-19T21:35:06.034Z,14.66
2023-05-19T21:37:33.547Z,14.76
2023-05-19T21:40:01.096Z,14.81
2023-05-19T21:42:29.913Z,14.90
2023-05-19T21:44:57.505Z,14.69
2023-05-19T21:47:25.004Z,14.79
2023-05-19T21:49:52.545Z,14.66
2023-05-19T21:52:20.082Z,14.73
2023-05-19T21:54:47.829Z,14.89
2023-05-19T21:57:15.390Z,14.95
2023-05-19T21:59:44.926Z,14.89
2023-05-19T22:02:12.494Z,14.94
2023-05-19T22:04:40.153Z,14.94
2023-05-19T22:07:07.793Z,14.92
2023-05-19T22:09:35.341Z,14.75
2023-05-19T22:12:02.835Z,14.59
2023-05-19T22:14:30.537Z,14.65
2023-05-19T22:16:59.358Z,14.69
2023-05-19T22:19:26.918Z,14.82
2023-05-19T22:22:01.805Z,14.73
2023-05-19T22:24:33.530Z,14.74
2023-05-19T22:27:01.046Z,14.83
2023-05-19T22:29:28.584Z,14.78
2023-05-19T22:31:56.092Z,14.54
2023-05-19T22:34:25.228Z,14.54
2023-05-19T22:36:52.804Z,14.54
2023-05-19T22:39:20.304Z,14.54
2023-05-19T22:41:47.828Z,14.41
2023-05-19T22:44:16.264Z,14.39
2023-05-19T22:46:44.145Z,14.30
2023-05-19T22:49:11.765Z,14.29
2023-05-19T22:51:40.699Z,14.29
2023-05-19T22:54:09.476Z,14.14
2023-05-19T22:56:37.129Z,14.17
2023-05-19T22:59:04.631Z,14.01
2023-05-19T23:01:32.165Z,14.04
2023-05-19T23:03:59.764Z,14.09
2023-05-19T23:06:27.339Z,14.16
2023-05-19T23:09:03.554Z,14.17
2023-05-19T23:11:31.256Z,14.26
2023-05-19T23:13:58.946Z,14.11
2023-05-19T23:16:26.482Z,14.09
2023-05-19T23:18:54.150Z,14.15
2023-05-19T23:21:21.671Z,14.20
2023-05-19T23:23:49.254Z,14.13
2023-05-19T23:26:18.107Z,14.10
2023-05-19T23:28:45.891Z,14.12
2023-05-19T23:31:13.428Z,14.07
2023-05-19T23:33:41.033Z,13.92
2023-05-19T23:36:10.048Z,13.91
2023-05-19T23:38:38.356Z,13.87
2023-05-19T23:41:06.200Z,13.91
2023-05-19T23:43:35.047Z,13.79
2023-05-19T23:46:02.630Z,13.87
2023-05-19T23:48:30.457Z,13.77
2023-05-19T23:50:58.662Z,13.67
2023-05-19T23:53:26.515Z,13.61
2023-05-19T23:55:54.539Z,13.67
2023-05-19T23:58:23.374Z,13.61
